Canefield Airport

Partly cloudy with adjacent showers
23oC (73oF)

Partly cloudy with adjacent showers


Winds: East north easterly @ 04kts / 07km/h

Humidity: 74%

Barometric Pressure: 1016 mb

Accumulated Rainfall for February: 147.7 mm

Updated: 7:00 local time (11:00 UTC)

Douglas-Charles Airport

Partly cloudy and breezy with adjacent showers
25oC (77oF)

Partly cloudy and breezy with adjacent showers


Winds: East north easterly @ 13kts/ 24km/h

Humidity: 70%

Barometric Pressure: 1018 mb

Accumulated Rainfall for February: 51.3 mm

Updated: 7:00 local time (11:00 UTC)

Satellite Imagery

Satellite Imagery
Click image for larger view. (Source: National Hurricane Center).

Aviation Routine Report (METAR)

Douglas-Charles: METAR TDPD 201100Z 06013KT 9999 SCT016 25/19 Q1018=
Canefield: METAR TDCF 201100Z 06004KT 9999 SCT016 23/19 Q1016=